Time;durP1;ratioP1;P1;durP2;ratioP2;P2;SDS_P1;SDS_P2;PMS_P1;PMS_P2;Temp;Humidity;BMP_temperature;BMP_pressure;BME280_temperature;BME280_humidity;BME280_pressure;Samples;Min_cycle;Max_cycle;Signal;HPM_P1;HPM_P2
2023/04/19 00:00:37;;;;;;;0.20;0.20;;;7.00;99.90;;;;;;5029698;28;20488;-96
2023/04/19 00:03:04;;;;;;;0.10;0.10;;;7.00;99.90;;;;;;5032189;28;20195;-95
2023/04/19 00:05:30;;;;;;;0.10;0.10;;;7.00;99.90;;;;;;5031552;28;20462;-95
2023/04/19 00:07:55;;;;;;;0.10;0.10;;;7.00;99.90;;;;;;5022395;28;20439;-95
2023/04/19 00:10:21;;;;;;;0.20;0.20;;;6.90;99.90;;;;;;5031744;28;20649;-96
2023/04/19 00:12:47;;;;;;;0.20;0.20;;;6.90;99.90;;;;;;5029254;28;20250;-96
2023/04/19 00:15:12;;;;;;;0.20;0.20;;;7.00;99.90;;;;;;5028665;28;20204;-95
2023/04/19 00:17:40;;;;;;;0.20;0.20;;;6.90;99.90;;;;;;5033829;28;20219;-95
2023/04/19 00:20:07;;;;;;;0.20;0.20;;;6.80;99.90;;;;;;5030841;28;20454;-95
2023/04/19 00:22:33;;;;;;;0.20;0.20;;;6.80;99.90;;;;;;5029345;28;20958;-95
2023/04/19 00:24:59;;;;;;;0.10;0.10;;;6.70;99.90;;;;;;5027360;28;20455;-94
2023/04/19 00:27:24;;;;;;;0.10;0.10;;;6.60;99.90;;;;;;5029626;28;20446;-95
2023/04/19 00:29:50;;;;;;;0.13;0.13;;;6.70;99.90;;;;;;5022355;28;21172;-95
2023/04/19 00:32:17;;;;;;;0.10;0.10;;;6.80;99.90;;;;;;5021318;28;20192;-95
2023/04/19 00:34:42;;;;;;;0.20;0.20;;;6.70;99.90;;;;;;5034551;28;20682;-95
2023/04/19 00:37:09;;;;;;;0.20;0.20;;;6.80;99.90;;;;;;5027020;28;20479;-95
2023/04/19 00:39:35;;;;;;;0.10;0.10;;;6.70;99.90;;;;;;5030935;28;20266;-94
2023/04/19 00:42:01;;;;;;;0.20;0.20;;;6.60;99.90;;;;;;5034401;28;20504;-95
2023/04/19 00:44:26;;;;;;;0.20;0.20;;;6.60;99.90;;;;;;5033821;28;20195;-95
2023/04/19 00:46:53;;;;;;;0.10;0.10;;;6.60;99.90;;;;;;5030909;28;20237;-94
2023/04/19 00:49:21;;;;;;;0.20;0.20;;;6.60;99.90;;;;;;5028641;28;20212;-94
2023/04/19 00:51:47;;;;;;;0.10;0.10;;;6.50;99.90;;;;;;5033511;28;20541;-95
2023/04/19 00:54:13;;;;;;;0.10;0.10;;;6.50;99.90;;;;;;5033612;28;20506;-93
2023/04/19 00:56:39;;;;;;;0.20;0.20;;;6.50;99.90;;;;;;5032119;28;20446;-94
2023/04/19 00:59:06;;;;;;;0.17;0.17;;;6.30;99.90;;;;;;5032800;28;20434;-95
2023/04/19 01:01:33;;;;;;;0.10;0.10;;;6.40;99.90;;;;;;5033789;28;20540;-94
2023/04/19 01:04:00;;;;;;;0.10;0.10;;;6.30;99.90;;;;;;5032378;28;20438;-95
2023/04/19 01:06:28;;;;;;;0.20;0.20;;;6.30;99.90;;;;;;5032161;28;20442;-95
2023/04/19 01:08:54;;;;;;;0.20;0.20;;;6.30;99.90;;;;;;5034269;28;20442;-96
2023/04/19 01:11:20;;;;;;;0.10;0.10;;;6.40;99.90;;;;;;5033343;28;20449;-95
2023/04/19 01:13:45;;;;;;;0.20;0.20;;;6.30;99.90;;;;;;5027962;28;20184;-95
2023/04/19 01:16:12;;;;;;;0.20;0.20;;;6.20;99.90;;;;;;5034721;28;20195;-96
2023/04/19 01:18:39;;;;;;;0.20;0.20;;;6.20;99.90;;;;;;5035217;28;20192;-95
2023/04/19 01:21:06;;;;;;;0.10;0.10;;;6.30;99.90;;;;;;5029600;28;20946;-95
2023/04/19 01:23:31;;;;;;;0.20;0.20;;;6.30;99.90;;;;;;5024885;28;20446;-95
2023/04/19 01:25:57;;;;;;;0.20;0.20;;;6.30;99.90;;;;;;5031907;28;20457;-94
2023/04/19 01:28:23;;;;;;;0.10;0.10;;;6.30;99.90;;;;;;5030716;28;20227;-94
2023/04/19 01:30:52;;;;;;;0.20;0.20;;;6.30;99.90;;;;;;5021084;28;20264;-94
2023/04/19 01:33:19;;;;;;;0.20;0.20;;;6.30;99.90;;;;;;5025329;28;20291;-94
2023/04/19 01:35:44;;;;;;;0.20;0.20;;;6.20;99.90;;;;;;5029627;28;20451;-93
2023/04/19 01:38:10;;;;;;;0.20;0.20;;;6.20;99.90;;;;;;5026597;28;20445;-95
2023/04/19 01:40:35;;;;;;;0.20;0.20;;;6.30;99.90;;;;;;5030127;28;20545;-94
2023/04/19 01:43:01;;;;;;;0.20;0.20;;;6.10;99.90;;;;;;5023928;28;20196;-94
2023/04/19 01:45:27;;;;;;;0.20;0.20;;;6.20;99.90;;;;;;5008956;28;20242;-94
2023/04/19 01:47:52;;;;;;;0.13;0.13;;;6.20;99.90;;;;;;5019348;28;20188;-94
2023/04/19 01:50:18;;;;;;;0.20;0.20;;;6.30;99.90;;;;;;5031476;28;20739;-93
2023/04/19 01:52:43;;;;;;;0.20;0.20;;;6.30;99.90;;;;;;5033765;28;20936;-94
2023/04/19 01:55:09;;;;;;;0.20;0.20;;;6.20;99.90;;;;;;5027885;28;20227;-94
2023/04/19 01:57:34;;;;;;;0.20;0.20;;;6.20;99.90;;;;;;5031101;28;20207;-94
2023/04/19 02:00:01;;;;;;;0.20;0.20;;;6.10;99.90;;;;;;5032642;28;20187;-93
2023/04/19 02:02:26;;;;;;;0.20;0.20;;;6.10;99.90;;;;;;5032687;28;20183;-94
2023/04/19 02:04:52;;;;;;;0.20;0.20;;;6.20;99.90;;;;;;5032130;28;20488;-94
2023/04/19 02:07:17;;;;;;;0.20;0.20;;;6.10;99.90;;;;;;5031710;28;20641;-93
2023/04/19 02:09:43;;;;;;;0.20;0.20;;;6.10;99.90;;;;;;5044395;28;20219;-94
2023/04/19 02:12:09;;;;;;;0.20;0.20;;;6.00;99.90;;;;;;5047002;28;20230;-94
2023/04/19 02:14:36;;;;;;;0.20;0.20;;;5.90;99.90;;;;;;5051155;28;20178;-93
2023/04/19 02:17:01;;;;;;;0.20;0.20;;;5.90;99.90;;;;;;5026369;28;20222;-94
2023/04/19 02:19:27;;;;;;;0.20;0.20;;;5.80;99.90;;;;;;5054590;28;20486;-95
2023/04/19 02:21:56;;;;;;;0.20;0.20;;;5.80;99.90;;;;;;5050925;28;20222;-92
2023/04/19 02:24:24;;;;;;;0.20;0.20;;;5.80;99.90;;;;;;5052044;28;20195;-93
2023/04/19 02:26:50;;;;;;;0.20;0.20;;;5.90;99.90;;;;;;5042085;28;20513;-93
2023/04/19 02:29:16;;;;;;;0.20;0.20;;;5.80;99.90;;;;;;5045322;28;20457;-93
2023/04/19 02:31:44;;;;;;;0.20;0.20;;;5.80;99.90;;;;;;5044506;28;20459;-93
2023/04/19 02:34:09;;;;;;;0.20;0.20;;;5.80;99.90;;;;;;5043793;28;20415;-93
2023/04/19 02:36:35;;;;;;;0.20;0.20;;;5.70;99.90;;;;;;5052431;28;20483;-93
2023/04/19 02:39:00;;;;;;;0.20;0.20;;;5.80;99.90;;;;;;5051859;28;20183;-94
2023/04/19 02:41:26;;;;;;;0.10;0.10;;;5.70;99.90;;;;;;5051943;28;20251;-93
2023/04/19 02:43:51;;;;;;;0.20;0.20;;;5.70;99.90;;;;;;5047447;28;20191;-94
2023/04/19 02:46:17;;;;;;;0.20;0.20;;;5.60;99.90;;;;;;5028705;28;20187;-94
2023/04/19 02:48:43;;;;;;;0.20;0.20;;;5.60;99.90;;;;;;5026406;28;20191;-93
2023/04/19 02:51:17;;;;;;;0.20;0.20;;;5.70;99.90;;;;;;5030828;28;20475;-94
2023/04/19 02:53:42;;;;;;;0.30;0.30;;;5.60;99.90;;;;;;5032389;28;20184;-94
2023/04/19 02:56:08;;;;;;;0.20;0.20;;;5.60;99.90;;;;;;5032397;28;20442;-94
2023/04/19 02:58:34;;;;;;;0.20;0.20;;;5.80;99.90;;;;;;5029984;28;20282;-94
2023/04/19 03:00:59;;;;;;;0.20;0.20;;;5.80;99.90;;;;;;5024532;28;20199;-94
2023/04/19 03:03:25;;;;;;;0.13;0.13;;;5.70;99.90;;;;;;5032839;28;20195;-94
2023/04/19 03:05:51;;;;;;;0.20;0.20;;;5.80;99.90;;;;;;5022945;28;20191;-94
2023/04/19 03:08:17;;;;;;;0.20;0.20;;;5.80;99.90;;;;;;5027275;28;20198;-93
2023/04/19 03:10:43;;;;;;;0.20;0.20;;;5.70;99.90;;;;;;5030940;28;20226;-94
2023/04/19 03:13:09;;;;;;;0.20;0.20;;;5.80;99.90;;;;;;5025095;28;20450;-94
2023/04/19 03:15:36;;;;;;;0.20;0.20;;;5.90;99.90;;;;;;5023212;28;20675;-93
2023/04/19 03:18:01;;;;;;;0.20;0.20;;;5.80;99.90;;;;;;5032041;28;20449;-95
2023/04/19 03:20:28;;;;;;;0.20;0.20;;;5.80;99.90;;;;;;5022796;28;20439;-94
2023/04/19 03:22:53;;;;;;;0.20;0.20;;;5.80;99.90;;;;;;5030669;28;20191;-94
2023/04/19 03:25:19;;;;;;;0.20;0.20;;;5.80;99.90;;;;;;5031731;28;20445;-94
2023/04/19 03:27:46;;;;;;;0.20;0.20;;;5.80;99.90;;;;;;5026806;28;20218;-94
2023/04/19 03:30:12;;;;;;;0.20;0.20;;;5.80;99.90;;;;;;5029259;28;20226;-94
2023/04/19 03:32:38;;;;;;;0.20;0.20;;;5.80;99.90;;;;;;5028784;28;20900;-95
2023/04/19 03:35:04;;;;;;;0.20;0.20;;;5.90;99.90;;;;;;5021248;28;20200;-93
2023/04/19 03:37:29;;;;;;;0.20;0.20;;;6.00;99.90;;;;;;5023553;28;20208;-93
2023/04/19 03:39:55;;;;;;;0.20;0.20;;;6.00;99.90;;;;;;5035290;28;20509;-94
2023/04/19 03:42:21;;;;;;;0.20;0.20;;;6.00;99.90;;;;;;5022682;28;20190;-94
2023/04/19 03:44:46;;;;;;;0.20;0.20;;;5.90;99.90;;;;;;5016002;28;20552;-94
2023/04/19 03:47:12;;;;;;;0.20;0.20;;;5.90;99.90;;;;;;5029521;28;20187;-93
2023/04/19 03:49:37;;;;;;;0.20;0.20;;;6.00;99.90;;;;;;5024735;28;20224;-93
2023/04/19 03:52:03;;;;;;;0.20;0.20;;;5.90;99.90;;;;;;5021396;28;20202;-94
2023/04/19 03:54:29;;;;;;;0.20;0.20;;;6.00;99.90;;;;;;5025136;28;20236;-93
2023/04/19 03:56:54;;;;;;;0.20;0.20;;;6.00;99.90;;;;;;5031103;28;20190;-94
2023/04/19 03:59:23;;;;;;;0.10;0.10;;;5.90;99.90;;;;;;5030942;28;20191;-93
2023/04/19 04:01:52;;;;;;;0.20;0.20;;;6.00;99.90;;;;;;5032230;28;20180;-94
2023/04/19 04:04:18;;;;;;;0.20;0.20;;;6.00;99.90;;;;;;5015415;28;20476;-93
2023/04/19 04:06:44;;;;;;;0.20;0.20;;;6.00;99.90;;;;;;5029011;28;20473;-94
2023/04/19 04:09:09;;;;;;;0.20;0.20;;;6.10;99.90;;;;;;5034855;28;20214;-93
2023/04/19 04:11:35;;;;;;;0.20;0.20;;;6.10;99.90;;;;;;5027319;28;20443;-93
2023/04/19 04:14:01;;;;;;;0.20;0.20;;;6.10;99.90;;;;;;5034411;28;20179;-93
2023/04/19 04:16:26;;;;;;;0.20;0.20;;;6.00;99.90;;;;;;5028331;28;20191;-94
2023/04/19 04:18:52;;;;;;;0.20;0.20;;;6.20;99.90;;;;;;5029669;28;20200;-92
2023/04/19 04:21:17;;;;;;;0.20;0.20;;;6.20;99.90;;;;;;5035246;28;20211;-94
2023/04/19 04:23:44;;;;;;;0.20;0.20;;;6.20;99.90;;;;;;5034466;28;20199;-94
2023/04/19 04:26:09;;;;;;;0.20;0.20;;;6.10;99.90;;;;;;5035330;28;20384;-94
2023/04/19 04:28:35;;;;;;;0.20;0.20;;;6.10;99.90;;;;;;5028067;28;20454;-93
2023/04/19 04:31:01;;;;;;;0.20;0.20;;;6.20;99.90;;;;;;5032515;28;20219;-94
2023/04/19 04:33:27;;;;;;;0.10;0.10;;;6.20;99.90;;;;;;5030908;28;20270;-94
2023/04/19 04:35:55;;;;;;;0.20;0.20;;;6.20;99.90;;;;;;5044192;28;20244;-94
2023/04/19 04:38:21;;;;;;;0.20;0.20;;;6.20;99.90;;;;;;5028539;28;20977;-93
2023/04/19 04:40:53;;;;;;;0.20;0.20;;;6.20;99.90;;;;;;5034346;28;20426;-94
2023/04/19 04:43:20;;;;;;;0.20;0.20;;;6.30;99.90;;;;;;5032586;28;20233;-93
2023/04/19 04:45:46;;;;;;;0.20;0.20;;;6.30;99.90;;;;;;5032925;28;20441;-93
2023/04/19 04:48:12;;;;;;;0.20;0.20;;;6.30;99.90;;;;;;5035104;28;20429;-93
2023/04/19 04:50:37;;;;;;;0.20;0.20;;;6.40;99.90;;;;;;5042242;28;20223;-93
2023/04/19 04:53:03;;;;;;;0.20;0.20;;;6.40;99.90;;;;;;5034743;28;20192;-93
2023/04/19 04:55:29;;;;;;;0.20;0.20;;;6.40;99.90;;;;;;5031156;28;20235;-95
2023/04/19 04:57:55;;;;;;;0.20;0.20;;;6.40;99.90;;;;;;5033690;28;20195;-93
2023/04/19 05:00:21;;;;;;;0.17;0.17;;;6.40;99.90;;;;;;5028906;28;20207;-93
2023/04/19 05:02:47;;;;;;;0.20;0.20;;;6.50;99.90;;;;;;5029122;28;20446;-94
2023/04/19 05:05:12;;;;;;;0.20;0.20;;;6.50;99.90;;;;;;5029891;28;20520;-96
2023/04/19 05:07:38;;;;;;;0.20;0.20;;;6.60;99.90;;;;;;5028257;28;20191;-93
2023/04/19 05:10:04;;;;;;;0.20;0.20;;;6.60;99.90;;;;;;5032479;28;20318;-95
2023/04/19 05:12:30;;;;;;;0.20;0.20;;;6.60;99.90;;;;;;5031575;28;20184;-93
2023/04/19 05:14:55;;;;;;;0.20;0.20;;;6.60;99.90;;;;;;5024172;28;20444;-94
2023/04/19 05:17:21;;;;;;;0.20;0.20;;;6.60;99.90;;;;;;5030853;28;20184;-94
2023/04/19 05:19:47;;;;;;;0.20;0.20;;;6.70;99.90;;;;;;5033454;28;20274;-94
2023/04/19 05:22:12;;;;;;;0.20;0.20;;;6.70;99.90;;;;;;5031851;28;20545;-94
2023/04/19 05:24:38;;;;;;;0.20;0.20;;;6.80;99.90;;;;;;5031652;28;20555;-94
2023/04/19 05:27:03;;;;;;;0.20;0.20;;;6.90;99.90;;;;;;5032064;28;20711;-95
2023/04/19 05:29:29;;;;;;;0.20;0.20;;;7.00;99.90;;;;;;5031263;28;20577;-90
2023/04/19 05:31:54;;;;;;;0.10;0.10;;;7.10;99.90;;;;;;5033615;28;20226;-93
2023/04/19 05:34:20;;;;;;;0.17;0.17;;;7.10;99.90;;;;;;5033028;28;20709;-96
2023/04/19 05:36:45;;;;;;;0.10;0.10;;;7.20;99.90;;;;;;5035154;28;20643;-95
2023/04/19 05:39:12;;;;;;;0.10;0.10;;;7.30;99.90;;;;;;5035127;28;20183;-93
2023/04/19 05:41:38;;;;;;;0.10;0.10;;;7.50;99.90;;;;;;5018929;28;20231;-93
2023/04/19 05:44:04;;;;;;;0.20;0.20;;;7.50;99.90;;;;;;5018410;28;20419;-96
2023/04/19 05:46:30;;;;;;;0.17;0.17;;;7.60;99.90;;;;;;5022032;28;20231;-94
2023/04/19 05:48:56;;;;;;;0.20;0.20;;;7.70;99.90;;;;;;5033575;28;20181;-95
2023/04/19 05:51:31;;;;;;;0.17;0.17;;;7.90;99.90;;;;;;5032337;28;20504;-94
2023/04/19 05:53:58;;;;;;;0.20;0.20;;;7.90;99.90;;;;;;5029015;28;20920;-96
2023/04/19 05:56:30;;;;;;;0.20;0.20;;;8.00;99.90;;;;;;5044908;28;20454;-96
2023/04/19 05:58:56;;;;;;;0.10;0.10;;;8.10;99.90;;;;;;5042485;28;20529;-96
2023/04/19 06:01:22;;;;;;;0.17;0.17;;;8.10;99.90;;;;;;5034883;28;20477;-95
2023/04/19 06:03:51;;;;;;;0.10;0.10;;;8.20;99.90;;;;;;5054030;23;20187;-95
2023/04/19 06:06:18;;;;;;;0.20;0.20;;;8.30;99.90;;;;;;5025673;28;20455;-95
2023/04/19 06:08:44;;;;;;;0.10;0.10;;;8.40;99.90;;;;;;5041268;28;20465;-94
2023/04/19 06:11:09;;;;;;;0.20;0.20;;;8.50;99.90;;;;;;5020597;28;21029;-95
2023/04/19 06:13:35;;;;;;;0.17;0.17;;;8.70;99.90;;;;;;5046353;28;20183;-96
2023/04/19 06:16:02;;;;;;;0.20;0.20;;;8.80;99.90;;;;;;5025949;28;20504;-96
2023/04/19 06:18:30;;;;;;;0.10;0.10;;;8.90;99.90;;;;;;5031089;28;20183;-95
2023/04/19 06:20:56;;;;;;;0.10;0.10;;;8.80;99.90;;;;;;5028162;28;20450;-96
2023/04/19 06:23:25;;;;;;;0.10;0.10;;;8.90;99.90;;;;;;5023473;28;20448;-96
2023/04/19 06:25:51;;;;;;;0.10;0.10;;;9.00;99.90;;;;;;5031224;28;20207;-95
2023/04/19 06:28:17;;;;;;;0.10;0.10;;;9.10;99.90;;;;;;5022615;28;20439;-96
2023/04/19 06:30:43;;;;;;;0.10;0.10;;;9.10;99.90;;;;;;5009342;28;20220;-94
2023/04/19 06:33:09;;;;;;;0.10;0.10;;;9.10;99.90;;;;;;4998768;28;20457;-96
2023/04/19 06:35:34;;;;;;;0.10;0.10;;;9.10;99.90;;;;;;5013118;28;20833;-96
2023/04/19 06:38:00;;;;;;;0.10;0.10;;;9.20;99.90;;;;;;5021711;28;20667;-92
2023/04/19 06:40:27;;;;;;;0.10;0.10;;;9.30;99.90;;;;;;5025882;28;20191;-94
2023/04/19 06:42:53;;;;;;;0.10;0.10;;;9.50;99.90;;;;;;5022255;28;20176;-95
2023/04/19 06:45:18;;;;;;;0.10;0.10;;;9.50;99.90;;;;;;5011910;23;21042;-94
2023/04/19 06:47:44;;;;;;;0.10;0.10;;;9.60;99.90;;;;;;4987932;28;20239;-95
2023/04/19 06:50:12;;;;;;;0.10;0.10;;;9.60;99.90;;;;;;4994474;28;20236;-92
2023/04/19 06:52:38;;;;;;;0.10;0.10;;;9.70;99.90;;;;;;4980299;28;20194;-92
2023/04/19 06:55:08;;;;;;;0.10;0.10;;;9.80;99.90;;;;;;4983128;28;20464;-95
2023/04/19 06:57:33;;;;;;;0.10;0.10;;;9.70;99.90;;;;;;4990954;28;20588;-91
2023/04/19 06:59:59;;;;;;;0.10;0.10;;;9.80;99.90;;;;;;4998400;28;20475;-91
2023/04/19 07:02:25;;;;;;;0.10;0.10;;;9.80;99.90;;;;;;4997877;28;20196;-93
2023/04/19 07:04:50;;;;;;;0.10;0.10;;;9.80;99.90;;;;;;5002007;28;20210;-95
2023/04/19 07:07:16;;;;;;;0.10;0.10;;;9.80;99.90;;;;;;4995226;28;20193;-92
2023/04/19 07:09:41;;;;;;;0.10;0.10;;;9.90;99.90;;;;;;4991351;28;20209;-93
2023/04/19 07:12:07;;;;;;;0.10;0.10;;;10.00;99.90;;;;;;4995126;28;20220;-96
2023/04/19 07:14:33;;;;;;;0.10;0.10;;;10.00;99.90;;;;;;5002227;28;20569;-93
2023/04/19 07:16:58;;;;;;;0.10;0.10;;;10.10;99.90;;;;;;4985695;28;20190;-95
2023/04/19 07:19:24;;;;;;;0.10;0.10;;;10.10;99.90;;;;;;4986036;28;20262;-94
2023/04/19 07:21:50;;;;;;;0.07;0.07;;;10.20;99.90;;;;;;4989446;28;20197;-94
2023/04/19 07:24:16;;;;;;;0.10;0.10;;;10.20;99.90;;;;;;4995464;28;20280;-94
2023/04/19 07:26:41;;;;;;;0.10;0.10;;;10.30;99.90;;;;;;4993302;28;20460;-94
2023/04/19 07:29:07;;;;;;;0.10;0.10;;;10.30;99.90;;;;;;4994211;28;20189;-94
2023/04/19 07:31:35;;;;;;;0.10;0.10;;;10.30;99.90;;;;;;4975790;28;20685;-96
2023/04/19 07:34:01;;;;;;;0.10;0.10;;;10.50;99.90;;;;;;4999361;28;20185;-93
2023/04/19 07:36:33;;;;;;;0.10;0.10;;;10.40;99.90;;;;;;4988714;28;20531;-96
2023/04/19 07:38:59;;;;;;;0.10;0.10;;;10.60;99.90;;;;;;4990013;28;20205;-93
2023/04/19 07:41:24;;;;;;;0.10;0.10;;;10.50;99.90;;;;;;4989985;28;20473;-93
2023/04/19 07:43:50;;;;;;;0.10;0.10;;;10.70;99.90;;;;;;4981716;28;20297;-92
2023/04/19 07:46:15;;;;;;;0.10;0.10;;;10.80;99.90;;;;;;4996537;28;20194;-88
2023/04/19 07:48:41;;;;;;;0.10;0.10;;;10.80;99.90;;;;;;4991521;28;20189;-87
2023/04/19 07:51:10;;;;;;;0.10;0.10;;;11.00;99.90;;;;;;4995699;28;20277;-90
2023/04/19 07:53:38;;;;;;;0.00;0.00;;;10.90;99.90;;;;;;5014770;28;20224;-93
2023/04/19 07:56:16;;;;;;;0.10;0.10;;;11.10;99.90;;;;;;4997190;28;21233;-93
2023/04/19 07:58:41;;;;;;;0.10;0.10;;;11.20;99.90;;;;;;5012914;28;20475;-86
2023/04/19 08:01:07;;;;;;;0.10;0.10;;;11.50;99.90;;;;;;5010321;28;20965;-86
2023/04/19 08:03:33;;;;;;;0.10;0.10;;;11.60;99.90;;;;;;5012759;28;20173;-85
2023/04/19 08:06:04;;;;;;;0.10;0.10;;;11.80;99.90;;;;;;4999616;28;20197;-84
2023/04/19 08:08:30;;;;;;;0.03;0.03;;;12.00;99.90;;;;;;5010234;28;20458;-93
2023/04/19 08:10:56;;;;;;;0.00;0.00;;;12.10;99.90;;;;;;5019633;28;20558;-94
2023/04/19 08:13:21;;;;;;;0.00;0.00;;;12.10;99.90;;;;;;5018232;28;20483;-92
2023/04/19 08:15:47;;;;;;;0.10;0.10;;;12.20;99.90;;;;;;5015390;28;20695;-94
2023/04/19 08:18:12;;;;;;;0.00;0.00;;;12.10;99.90;;;;;;5006607;28;20189;-95
2023/04/19 08:20:41;;;;;;;0.00;0.00;;;12.00;99.90;;;;;;5010696;28;20191;-93
2023/04/19 08:23:07;;;;;;;0.00;0.00;;;12.00;99.90;;;;;;5015350;28;20185;-94
2023/04/19 08:25:33;;;;;;;0.00;0.00;;;12.10;99.90;;;;;;5018692;28;20442;-94
2023/04/19 08:27:59;;;;;;;0.00;0.00;;;12.20;99.30;;;;;;5009211;28;20448;-90
2023/04/19 08:30:24;;;;;;;0.00;0.00;;;12.20;99.10;;;;;;5002320;28;20216;-85
2023/04/19 08:32:50;;;;;;;0.00;0.00;;;12.40;98.90;;;;;;5012314;28;20567;-85
2023/04/19 08:35:15;;;;;;;0.00;0.00;;;12.70;98.90;;;;;;4994617;28;20193;-91
2023/04/19 08:37:41;;;;;;;0.10;0.10;;;12.80;98.40;;;;;;5010011;28;20184;-92
2023/04/19 08:40:08;;;;;;;0.00;0.00;;;12.90;98.40;;;;;;5014268;28;20197;-88
2023/04/19 08:42:33;;;;;;;0.07;0.07;;;13.10;98.50;;;;;;5013769;28;20203;-88
2023/04/19 08:45:07;;;;;;;0.00;0.00;;;13.50;99.70;;;;;;5011121;28;20482;-89
2023/04/19 08:47:33;;;;;;;0.00;0.00;;;13.70;99.20;;;;;;5010933;28;20257;-89
2023/04/19 08:50:00;;;;;;;0.00;0.00;;;13.80;98.50;;;;;;5005828;28;20534;-89
2023/04/19 08:52:26;;;;;;;0.00;0.00;;;13.90;98.60;;;;;;4988970;28;20896;-90
2023/04/19 08:54:53;;;;;;;0.00;0.00;;;13.90;96.90;;;;;;5005466;28;20443;-92
2023/04/19 08:57:19;;;;;;;0.00;0.00;;;14.10;97.30;;;;;;5003451;28;20520;-93
2023/04/19 08:59:47;;;;;;;0.00;0.00;;;14.20;95.70;;;;;;5007468;28;20549;-92
2023/04/19 09:02:14;;;;;;;0.00;0.00;;;14.00;94.00;;;;;;5016189;28;20202;-92
2023/04/19 09:04:40;;;;;;;0.00;0.00;;;14.20;95.20;;;;;;4994428;28;20451;-91
2023/04/19 09:07:07;;;;;;;0.00;0.00;;;14.20;93.80;;;;;;5009361;28;20444;-89
2023/04/19 09:09:34;;;;;;;0.00;0.00;;;14.10;94.20;;;;;;5007103;28;20274;-91
2023/04/19 09:12:00;;;;;;;0.00;0.00;;;14.00;93.00;;;;;;5004358;28;20443;-95
2023/04/19 09:14:27;;;;;;;0.00;0.00;;;14.30;93.80;;;;;;5010039;28;21018;-91
2023/04/19 09:16:53;;;;;;;0.00;0.00;;;14.60;95.80;;;;;;5010467;28;20180;-92
2023/04/19 09:19:18;;;;;;;0.00;0.00;;;14.90;92.90;;;;;;5010260;28;20443;-92
2023/04/19 09:21:45;;;;;;;0.00;0.00;;;14.70;93.50;;;;;;5010723;28;20454;-91
2023/04/19 09:24:10;;;;;;;0.00;0.00;;;14.50;93.10;;;;;;5009853;28;20237;-92
2023/04/19 09:26:36;;;;;;;0.00;0.00;;;14.50;93.60;;;;;;5013228;28;20470;-91
2023/04/19 09:29:03;;;;;;;0.00;0.00;;;14.90;93.50;;;;;;4993139;28;20238;-92
2023/04/19 09:31:34;;;;;;;0.00;0.00;;;15.20;94.50;;;;;;5000976;28;20564;-89
2023/04/19 09:34:14;;;;;;;0.00;0.00;;;15.40;93.90;;;;;;4999644;28;20498;-93
2023/04/19 09:36:40;;;;;;;0.00;0.00;;;15.30;93.80;;;;;;5010989;28;20439;-90
2023/04/19 09:39:06;;;;;;;0.00;0.00;;;15.20;92.40;;;;;;5006569;28;20455;-90
2023/04/19 09:41:32;;;;;;;0.00;0.00;;;15.10;93.50;;;;;;5008807;28;20550;-93
2023/04/19 09:44:10;;;;;;;0.00;0.00;;;15.10;93.30;;;;;;5009588;28;20187;-95
2023/04/19 09:46:36;;;;;;;0.00;0.00;;;15.60;95.40;;;;;;4988190;28;20815;-91
2023/04/19 09:49:18;;;;;;;0.00;0.00;;;15.50;93.60;;;;;;5003943;28;20451;-91
2023/04/19 09:51:45;;;;;;;0.00;0.00;;;15.50;93.90;;;;;;5010028;28;20451;-96
2023/04/19 09:54:12;;;;;;;0.00;0.00;;;15.90;95.30;;;;;;5007192;28;20431;-93
2023/04/19 09:56:38;;;;;;;0.00;0.00;;;16.10;94.70;;;;;;5007903;28;20447;-91
2023/04/19 09:59:05;;;;;;;0.00;0.00;;;16.10;94.10;;;;;;5011883;28;20442;-92
2023/04/19 10:01:34;;;;;;;0.00;0.00;;;16.20;93.80;;;;;;5008348;28;20197;-95
2023/04/19 10:04:04;;;;;;;0.00;0.00;;;16.30;94.00;;;;;;5002258;28;20436;-94
2023/04/19 10:06:31;;;;;;;0.00;0.00;;;16.50;93.10;;;;;;5013011;28;20450;-95
2023/04/19 10:08:59;;;;;;;0.00;0.00;;;16.50;92.80;;;;;;5015883;28;20442;-94
2023/04/19 10:11:30;;;;;;;0.00;0.00;;;16.30;92.40;;;;;;5000670;28;20499;-96
2023/04/19 10:13:59;;;;;;;0.00;0.00;;;16.50;92.50;;;;;;5000294;28;20538;-94
2023/04/19 10:16:25;;;;;;;0.00;0.00;;;16.50;92.30;;;;;;5000666;28;20505;-90
2023/04/19 10:18:52;;;;;;;0.00;0.00;;;16.80;92.40;;;;;;5008867;28;20434;-91
2023/04/19 10:21:19;;;;;;;0.00;0.00;;;16.80;92.40;;;;;;5006139;28;21019;-93
2023/04/19 10:23:46;;;;;;;0.00;0.00;;;17.40;92.90;;;;;;5010126;28;20435;-89
2023/04/19 10:26:11;;;;;;;0.00;0.00;;;17.10;91.80;;;;;;5004523;28;20435;-96
2023/04/19 10:28:37;;;;;;;0.00;0.00;;;17.60;93.40;;;;;;5011273;28;20462;-94
2023/04/19 10:31:04;;;;;;;0.00;0.00;;;17.90;92.50;;;;;;5007522;28;20212;-95
2023/04/19 10:33:33;;;;;;;0.00;0.00;;;18.00;91.20;;;;;;5009423;28;20193;-88
2023/04/19 10:36:00;;;;;;;0.00;0.00;;;17.40;90.10;;;;;;5006043;28;20546;-92
2023/04/19 10:38:42;;;;;;;0.00;0.00;;;17.50;90.30;;;;;;5003618;28;20467;-84
2023/04/19 10:41:10;;;;;;;0.00;0.00;;;17.60;89.70;;;;;;5005047;28;20462;-96
2023/04/19 10:43:38;;;;;;;0.00;0.00;;;17.80;89.00;;;;;;5019476;28;20445;-96
2023/04/19 10:46:24;;;;;;;0.00;0.00;;;17.60;88.20;;;;;;5024272;28;20473;-96
2023/04/19 10:48:56;;;;;;;0.00;0.00;;;17.50;87.20;;;;;;5002403;28;20503;-95
2023/04/19 10:51:27;;;;;;;0.00;0.00;;;18.20;90.60;;;;;;5011422;28;20551;-96
2023/04/19 10:53:57;;;;;;;0.00;0.00;;;17.60;85.70;;;;;;5020630;28;20450;-96
2023/04/19 10:56:46;;;;;;;0.00;0.00;;;18.30;88.70;;;;;;5126595;22;20498;-96
2023/04/19 10:59:20;;;;;;;0.00;0.00;;;19.00;88.40;;;;;;5012014;28;20443;-96
2023/04/19 11:01:59;;;;;;;0.00;0.00;;;19.40;90.80;;;;;;5181227;23;20446;-96
2023/04/19 11:04:31;;;;;;;0.00;0.00;;;19.30;84.00;;;;;;5044962;22;20489;-96
2023/04/19 11:07:04;;;;;;;0.00;0.00;;;19.80;89.20;;;;;;5029873;28;20494;-96
2023/04/19 11:09:40;;;;;;;0.00;0.00;;;19.90;83.90;;;;;;5036036;22;20504;-96
2023/04/19 11:12:10;;;;;;;0.00;0.00;;;20.20;89.70;;;;;;5018306;23;20529;-96
2023/04/19 11:14:39;;;;;;;0.00;0.00;;;20.00;83.20;;;;;;5027467;28;20510;-96
2023/04/19 11:17:24;;;;;;;0.00;0.00;;;20.30;82.50;;;;;;5439256;22;20508;-96
2023/04/19 11:20:02;;;;;;;0.00;0.00;;;19.90;81.50;;;;;;5038632;28;20449;-96
2023/04/19 11:22:33;;;;;;;0.00;0.00;;;19.60;84.40;;;;;;5049482;22;20480;-96
2023/04/19 11:25:17;;;;;;;0.00;0.00;;;20.10;80.10;;;;;;5054490;28;20972;-96
2023/04/19 11:27:51;;;;;;;0.00;0.00;;;19.60;77.80;;;;;;5047450;22;20501;-96
2023/04/19 11:30:27;;;;;;;0.00;0.00;;;19.50;79.10;;;;;;5015175;28;20538;-95
2023/04/19 11:32:54;;;;;;;0.00;0.00;;;20.00;78.60;;;;;;5027590;28;20487;-96
2023/04/19 11:35:32;;;;;;;0.00;0.00;;;20.70;78.20;;;;;;5023624;28;20454;-96
2023/04/19 11:37:58;;;;;;;0.00;0.00;;;20.90;78.80;;;;;;5014831;28;20474;-96
2023/04/19 11:40:25;;;;;;;0.00;0.00;;;21.60;80.00;;;;;;5029083;22;20506;-94
2023/04/19 11:43:01;;;;;;;0.00;0.00;;;20.80;76.80;;;;;;5042310;28;20490;-96
2023/04/19 11:45:30;;;;;;;0.00;0.00;;;21.30;78.60;;;;;;5030337;28;20445;-96
2023/04/19 11:47:56;;;;;;;0.00;0.00;;;21.40;76.40;;;;;;5044526;23;20448;-96
2023/04/19 11:50:35;;;;;;;0.00;0.00;;;20.80;74.00;;;;;;5013042;28;20471;-96
2023/04/19 11:53:21;;;;;;;0.00;0.00;;;20.20;73.20;;;;;;5019175;28;20453;-96
2023/04/19 11:55:52;;;;;;;0.00;0.00;;;19.90;71.40;;;;;;4995581;28;20474;-96
2023/04/19 11:58:25;;;;;;;0.00;0.00;;;20.50;73.80;;;;;;5003396;28;20450;-96
2023/04/19 12:00:51;;;;;;;0.00;0.00;;;20.90;71.50;;;;;;4995309;28;20443;-95
2023/04/19 12:03:23;;;;;;;0.00;0.00;;;20.40;72.10;;;;;;5012672;28;20450;-96
2023/04/19 12:05:56;;;;;;;0.00;0.00;;;20.50;72.10;;;;;;5016761;28;20184;-95
2023/04/19 12:08:35;;;;;;;0.00;0.00;;;20.50;72.30;;;;;;5018878;28;20451;-96
2023/04/19 12:11:02;;;;;;;0.00;0.00;;;21.30;75.10;;;;;;5023928;28;20486;-96
2023/04/19 12:13:30;;;;;;;0.00;0.00;;;21.80;72.40;;;;;;5023161;28;20458;-96
2023/04/19 12:15:56;;;;;;;0.00;0.00;;;21.10;66.00;;;;;;4998630;28;20456;-96
2023/04/19 12:18:24;;;;;;;0.00;0.00;;;20.90;69.10;;;;;;5022431;23;20499;-96
2023/04/19 12:20:52;;;;;;;0.00;0.00;;;21.10;63.00;;;;;;5040815;28;20841;-96
2023/04/19 12:23:19;;;;;;;0.00;0.00;;;20.90;62.70;;;;;;5019278;28;21402;-96
2023/04/19 12:25:47;;;;;;;0.00;0.00;;;20.70;65.00;;;;;;5023423;28;20844;-96
2023/04/19 12:28:13;;;;;;;0.00;0.00;;;20.60;66.10;;;;;;5021180;28;20457;-96
2023/04/19 12:30:40;;;;;;;0.00;0.00;;;21.20;62.90;;;;;;5013699;28;20473;-96
2023/04/19 12:33:06;;;;;;;0.00;0.00;;;21.10;62.10;;;;;;5026901;28;20474;-96
2023/04/19 12:38:02;;;;;;;0.00;0.00;;;20.80;61.20;;;;;;5133781;22;20539;-96
2023/04/19 12:40:30;;;;;;;0.00;0.00;;;21.20;63.00;;;;;;4985887;23;20210;-96
2023/04/19 12:42:56;;;;;;;0.00;0.00;;;20.80;60.70;;;;;;4975160;28;20450;-96
2023/04/19 12:45:21;;;;;;;0.00;0.00;;;20.30;61.50;;;;;;4955871;28;20954;-96
2023/04/19 12:47:47;;;;;;;0.00;0.00;;;21.30;65.70;;;;;;4958455;29;20190;-96
2023/04/19 12:50:14;;;;;;;0.00;0.00;;;21.30;60.80;;;;;;4970066;28;20297;-96
2023/04/19 12:52:43;;;;;;;0.00;0.00;;;21.60;63.50;;;;;;4997424;23;20490;-96
2023/04/19 12:57:52;;;;;;;0.00;0.00;;;21.00;64.70;;;;;;5025467;28;20443;-96